createdAt,value
2022-10-18T00:00:53.527Z,17.40
2022-10-18T00:03:20.698Z,16.80
2022-10-18T00:05:49.530Z,15.70
2022-10-18T00:08:18.705Z,15.50
2022-10-18T00:10:47.085Z,14.40
2022-10-18T00:13:14.136Z,12.70
2022-10-18T00:15:49.837Z,15.10
2022-10-18T00:18:16.765Z,13.20
2022-10-18T00:20:43.661Z,13.60
2022-10-18T00:23:10.492Z,12.40
2022-10-18T00:25:37.353Z,14.80
2022-10-18T00:28:04.225Z,15.30
2022-10-18T00:30:31.140Z,11.90
2022-10-18T00:32:57.983Z,10.10
2022-10-18T00:35:25.318Z,10.90
2022-10-18T00:37:52.126Z,12.10
2022-10-18T00:40:19.123Z,11.50
2022-10-18T00:42:45.965Z,11.20
2022-10-18T00:45:25.524Z,10.90
2022-10-18T00:48:02.885Z,10.30
2022-10-18T00:50:33.990Z,10.50
2022-10-18T00:53:06.921Z,10.20
2022-10-18T00:55:34.402Z,10.90
2022-10-18T00:58:02.559Z,9.20
2022-10-18T01:00:29.804Z,11.00
2022-10-18T01:02:59.121Z,11.50
2022-10-18T01:05:26.716Z,10.50
2022-10-18T01:08:06.008Z,9.80
2022-10-18T01:10:47.741Z,9.40
2022-10-18T01:13:36.891Z,9.00
2022-10-18T01:17:03.510Z,8.10
2022-10-18T01:20:15.890Z,7.50
2022-10-18T01:22:55.142Z,7.50
2022-10-18T01:25:46.764Z,7.90
2022-10-18T01:28:46.404Z,8.20
2022-10-18T01:31:23.630Z,8.40
2022-10-18T01:33:59.822Z,8.90
2022-10-18T01:36:41.361Z,8.50
2022-10-18T01:39:17.986Z,7.40
2022-10-18T01:41:49.325Z,7.60
2022-10-18T01:44:23.576Z,7.70
2022-10-18T01:46:54.866Z,7.20
2022-10-18T01:49:21.842Z,7.60
2022-10-18T01:51:48.790Z,8.60
2022-10-18T01:54:32.826Z,8.20
2022-10-18T01:57:25.245Z,8.70
2022-10-18T02:00:06.350Z,8.20
2022-10-18T02:02:50.768Z,8.60
2022-10-18T02:05:48.485Z,8.00
2022-10-18T02:08:27.701Z,7.20
2022-10-18T02:11:05.449Z,7.60
2022-10-18T02:14:06.032Z,8.40
2022-10-18T02:16:54.568Z,7.40
2022-10-18T02:19:39.241Z,6.00
2022-10-18T02:22:10.630Z,7.40
2022-10-18T02:24:47.436Z,7.00
2022-10-18T02:27:14.847Z,6.90
2022-10-18T02:29:43.847Z,7.30
2022-10-18T02:32:29.735Z,7.90
2022-10-18T02:35:16.772Z,7.80
2022-10-18T02:37:47.743Z,8.30
2022-10-18T02:40:16.139Z,9.30
2022-10-18T02:42:54.331Z,7.30
2022-10-18T02:45:22.009Z,7.00
2022-10-18T02:47:48.954Z,8.30
2022-10-18T02:50:15.817Z,7.10
2022-10-18T02:52:42.583Z,7.10
2022-10-18T02:55:10.909Z,7.90
2022-10-18T02:57:37.979Z,7.20
2022-10-18T03:00:06.989Z,8.20
2022-10-18T03:02:33.999Z,8.10
2022-10-18T03:05:00.855Z,9.40
2022-10-18T03:07:27.787Z,9.30
2022-10-18T03:09:54.606Z,8.20
2022-10-18T03:12:21.702Z,9.00
2022-10-18T03:14:48.721Z,8.40
2022-10-18T03:17:15.870Z,8.30
2022-10-18T03:19:42.839Z,10.30
2022-10-18T03:22:09.759Z,9.20
2022-10-18T03:24:36.703Z,8.60
2022-10-18T03:27:03.845Z,8.60
2022-10-18T03:29:30.695Z,7.90
2022-10-18T03:31:57.517Z,8.90
2022-10-18T03:34:24.365Z,10.00
2022-10-18T03:36:51.345Z,11.00
2022-10-18T03:39:18.330Z,8.40
2022-10-18T03:41:45.178Z,8.60
2022-10-18T03:44:12.158Z,8.50
2022-10-18T03:46:39.004Z,9.10
2022-10-18T03:49:05.790Z,8.20
2022-10-18T03:51:32.620Z,8.40
2022-10-18T03:53:59.638Z,6.90
2022-10-18T03:56:26.447Z,6.80
2022-10-18T03:58:53.401Z,6.90
2022-10-18T04:01:20.303Z,6.90
2022-10-18T04:03:47.200Z,7.10
2022-10-18T04:06:14.148Z,7.10
2022-10-18T04:08:40.992Z,7.70
2022-10-18T04:11:08.651Z,7.50
2022-10-18T04:13:36.281Z,7.20
2022-10-18T04:16:03.245Z,7.70
2022-10-18T04:18:30.202Z,7.60
2022-10-18T04:20:57.863Z,7.00
2022-10-18T04:23:24.745Z,7.50
2022-10-18T04:25:51.768Z,6.60
2022-10-18T04:28:18.900Z,7.10
2022-10-18T04:30:53.747Z,7.00
2022-10-18T04:33:21.106Z,7.10
2022-10-18T04:35:52.246Z,7.10
2022-10-18T04:38:20.300Z,6.60
2022-10-18T04:43:13.940Z,6.00
2022-10-18T04:45:40.825Z,6.50
2022-10-18T04:48:07.938Z,6.60
2022-10-18T04:50:34.696Z,6.80
2022-10-18T04:53:01.660Z,5.80
2022-10-18T04:55:28.503Z,7.50
2022-10-18T04:57:55.641Z,7.90
2022-10-18T05:00:22.586Z,6.70
2022-10-18T05:02:49.421Z,8.00
2022-10-18T05:05:16.398Z,7.10
2022-10-18T05:07:43.329Z,7.00
2022-10-18T05:10:10.349Z,6.50
2022-10-18T05:12:37.319Z,9.10
2022-10-18T05:15:04.856Z,10.00
2022-10-18T05:17:31.814Z,10.40
2022-10-18T05:19:58.871Z,9.40
2022-10-18T05:22:25.678Z,8.10
2022-10-18T05:24:52.551Z,7.30
2022-10-18T05:27:19.677Z,19.90
2022-10-18T05:29:46.650Z,7.10
2022-10-18T05:32:13.478Z,7.00
2022-10-18T05:34:40.353Z,6.30
2022-10-18T05:37:07.380Z,6.80
2022-10-18T05:39:34.224Z,6.20
2022-10-18T05:42:01.082Z,6.30
2022-10-18T05:44:27.919Z,6.50
2022-10-18T05:46:54.744Z,6.10
2022-10-18T05:49:21.676Z,7.10
2022-10-18T05:51:48.945Z,8.10
2022-10-18T05:54:16.122Z,6.30
2022-10-18T05:56:42.955Z,6.70
2022-10-18T05:59:12.255Z,6.10
2022-10-18T06:01:41.440Z,6.70
2022-10-18T06:04:10.416Z,8.00
2022-10-18T06:06:38.793Z,6.90
2022-10-18T06:09:08.729Z,7.50
2022-10-18T06:11:37.060Z,7.80
2022-10-18T06:14:05.256Z,8.50
2022-10-18T06:16:32.784Z,8.70
2022-10-18T06:19:00.162Z,7.00
2022-10-18T06:21:27.969Z,7.00
2022-10-18T06:23:58.746Z,5.40
2022-10-18T06:26:28.187Z,4.80
2022-10-18T06:28:55.250Z,5.00
2022-10-18T06:31:22.110Z,5.50
2022-10-18T06:33:49.343Z,5.30
2022-10-18T06:36:21.981Z,6.40
2022-10-18T06:38:48.957Z,5.90
2022-10-18T06:41:19.252Z,5.70
2022-10-18T06:43:57.708Z,5.40
2022-10-18T06:46:26.444Z,6.10
2022-10-18T06:48:53.211Z,4.70
2022-10-18T06:51:20.661Z,3.90
2022-10-18T06:53:59.612Z,5.70
2022-10-18T06:56:35.736Z,6.30
2022-10-18T06:59:02.718Z,5.10
2022-10-18T07:01:29.884Z,6.10
2022-10-18T07:03:57.027Z,5.60
2022-10-18T07:06:24.860Z,4.90
2022-10-18T07:08:55.089Z,5.20
2022-10-18T07:11:26.453Z,4.70
2022-10-18T07:14:06.055Z,5.30
2022-10-18T07:16:34.530Z,5.10
2022-10-18T07:19:01.403Z,6.00
2022-10-18T07:21:28.656Z,5.20
2022-10-18T07:23:56.438Z,4.70
2022-10-18T07:26:29.151Z,6.00
2022-10-18T07:29:05.230Z,10.60
2022-10-18T07:31:32.110Z,4.90
2022-10-18T07:33:59.260Z,4.60
2022-10-18T07:36:26.298Z,4.50
2022-10-18T07:38:53.637Z,4.50
2022-10-18T07:41:21.734Z,5.40
2022-10-18T07:43:51.772Z,5.00
2022-10-18T07:46:21.932Z,5.00
2022-10-18T07:48:49.609Z,4.10
2022-10-18T07:51:17.887Z,4.60
2022-10-18T07:53:44.853Z,4.60
2022-10-18T07:56:16.563Z,4.60
2022-10-18T07:58:53.232Z,4.90
2022-10-18T08:01:23.118Z,4.60
2022-10-18T08:03:50.929Z,4.80
2022-10-18T08:06:21.145Z,4.60
2022-10-18T08:08:48.613Z,5.00
2022-10-18T08:11:23.484Z,5.30
2022-10-18T08:13:52.524Z,5.10
2022-10-18T08:18:59.195Z,5.30
2022-10-18T08:21:26.816Z,5.10
2022-10-18T08:23:54.074Z,5.80
2022-10-18T08:26:22.973Z,7.20
2022-10-18T08:28:54.322Z,5.60
2022-10-18T08:31:31.183Z,5.10
2022-10-18T08:33:58.217Z,4.80
2022-10-18T08:36:25.366Z,5.50
2022-10-18T08:38:52.607Z,5.80
2022-10-18T08:41:37.589Z,6.10
2022-10-18T08:44:46.774Z,5.10
2022-10-18T08:47:37.454Z,6.10
2022-10-18T08:50:21.499Z,5.40
2022-10-18T08:53:17.799Z,5.60
2022-10-18T08:56:00.914Z,5.80
2022-10-18T08:58:33.376Z,5.70
2022-10-18T09:01:27.675Z,5.60
2022-10-18T09:04:26.168Z,6.10
2022-10-18T09:07:26.702Z,6.40
2022-10-18T09:10:44.998Z,6.50
2022-10-18T09:13:37.976Z,5.80
2022-10-18T09:16:28.296Z,6.00
2022-10-18T09:20:05.585Z,5.60
2022-10-18T09:22:59.896Z,5.60
2022-10-18T09:25:41.649Z,6.40
2022-10-18T09:28:16.066Z,7.00
2022-10-18T09:31:36.589Z,7.80
2022-10-18T09:34:51.865Z,8.00
2022-10-18T09:37:22.469Z,7.60
2022-10-18T09:39:56.106Z,7.50
2022-10-18T09:42:36.044Z,7.40
2022-10-18T09:45:20.633Z,7.50
2022-10-18T09:48:10.871Z,7.50
2022-10-18T09:51:05.260Z,8.00
2022-10-18T09:54:14.221Z,8.40
2022-10-18T09:57:17.557Z,9.10
2022-10-18T09:59:50.025Z,9.50
2022-10-18T10:02:23.667Z,9.50
2022-10-18T10:04:52.067Z,6.40
2022-10-18T10:07:34.909Z,9.00
2022-10-18T10:10:21.798Z,9.60
2022-10-18T10:13:02.359Z,8.20
2022-10-18T10:15:33.176Z,10.20
2022-10-18T10:18:15.297Z,9.60
2022-10-18T10:20:43.221Z,9.30
2022-10-18T10:26:06.658Z,9.30
2022-10-18T10:28:46.342Z,9.80
2022-10-18T10:31:27.382Z,10.10
2022-10-18T10:34:20.324Z,9.70
2022-10-18T10:36:51.528Z,9.20
2022-10-18T10:39:21.857Z,9.90
2022-10-18T10:42:01.208Z,10.40
2022-10-18T10:44:36.069Z,10.50
2022-10-18T10:47:04.204Z,10.20
2022-10-18T10:49:47.559Z,8.70
2022-10-18T10:52:29.076Z,11.70
2022-10-18T10:55:11.362Z,10.70
2022-10-18T10:57:48.404Z,10.80
2022-10-18T11:00:43.431Z,10.10
2022-10-18T11:03:34.745Z,10.10
2022-10-18T11:06:02.186Z,10.40
2022-10-18T11:08:41.510Z,10.80
2022-10-18T11:11:50.013Z,10.30
2022-10-18T11:14:32.434Z,9.10
2022-10-18T11:17:01.142Z,10.40
2022-10-18T11:19:54.962Z,9.80
2022-10-18T11:22:27.803Z,10.50
2022-10-18T11:24:55.103Z,7.30
2022-10-18T11:27:34.385Z,10.50
2022-10-18T11:30:34.899Z,9.40
2022-10-18T11:33:19.666Z,9.50
2022-10-18T11:36:34.043Z,9.10
2022-10-18T11:41:46.166Z,8.80
2022-10-18T11:44:44.189Z,8.20
2022-10-18T11:47:33.348Z,8.00
2022-10-18T11:50:11.505Z,8.20
2022-10-18T11:53:07.431Z,8.40
2022-10-18T11:56:04.994Z,8.80
2022-10-18T11:58:59.954Z,8.30
2022-10-18T12:02:09.011Z,7.80
2022-10-18T12:04:53.050Z,8.00
2022-10-18T12:07:42.103Z,9.00
2022-10-18T12:13:03.624Z,7.70
2022-10-18T12:15:37.505Z,8.60
2022-10-18T12:18:16.195Z,8.20
2022-10-18T12:20:51.652Z,7.80
2022-10-18T12:23:36.583Z,8.00
2022-10-18T12:26:08.374Z,7.60
2022-10-18T12:28:47.296Z,9.00
2022-10-18T12:31:36.989Z,7.80
2022-10-18T12:34:21.687Z,8.00
2022-10-18T12:37:20.729Z,7.00
2022-10-18T12:40:21.766Z,7.80
2022-10-18T12:42:52.153Z,7.80
2022-10-18T12:45:36.639Z,7.80
2022-10-18T12:48:08.586Z,7.20
2022-10-18T12:50:42.637Z,7.40
2022-10-18T12:53:20.266Z,7.70
2022-10-18T12:55:51.654Z,7.10
2022-10-18T12:58:30.522Z,7.70
2022-10-18T13:01:04.123Z,7.60
2022-10-18T13:03:56.355Z,7.60
2022-10-18T13:06:24.245Z,7.20
2022-10-18T13:11:45.329Z,6.10
2022-10-18T13:14:27.119Z,6.40
2022-10-18T13:17:26.610Z,6.80
2022-10-18T13:20:37.434Z,5.40
2022-10-18T13:24:05.479Z,5.90
2022-10-18T13:27:31.362Z,5.00
2022-10-18T13:30:17.505Z,6.00
2022-10-18T13:33:29.293Z,6.10
2022-10-18T13:36:26.127Z,5.50
2022-10-18T13:39:03.831Z,6.10
2022-10-18T13:41:56.705Z,6.10
2022-10-18T13:44:46.563Z,6.20
2022-10-18T13:47:37.992Z,5.50
2022-10-18T13:53:16.002Z,5.80
2022-10-18T13:56:01.902Z,5.90
2022-10-18T13:58:49.114Z,5.80
2022-10-18T14:01:26.112Z,6.80
2022-10-18T14:04:19.301Z,5.30
2022-10-18T14:06:48.359Z,6.00
2022-10-18T14:12:38.711Z,5.80
2022-10-18T14:15:31.315Z,6.80
2022-10-18T14:18:23.491Z,6.90
2022-10-18T14:21:16.917Z,5.60
2022-10-18T14:23:47.722Z,6.30
2022-10-18T14:26:18.480Z,5.70
2022-10-18T14:29:01.420Z,6.10
2022-10-18T14:31:28.777Z,7.00
2022-10-18T14:33:58.983Z,7.60
2022-10-18T14:36:42.720Z,7.50
2022-10-18T14:39:22.657Z,8.00
2022-10-18T14:41:58.932Z,7.20
2022-10-18T14:44:31.848Z,8.40
2022-10-18T14:47:04.086Z,7.80
2022-10-18T14:49:31.349Z,8.10
2022-10-18T14:52:00.429Z,8.30
2022-10-18T14:54:37.944Z,8.10
2022-10-18T14:59:44.481Z,7.20
2022-10-18T15:04:47.050Z,8.10
2022-10-18T15:07:17.461Z,9.60
2022-10-18T15:09:47.195Z,9.20
2022-10-18T15:12:16.201Z,10.20
2022-10-18T15:14:45.703Z,10.50
2022-10-18T15:17:34.292Z,11.80
2022-10-18T15:20:18.436Z,10.50
2022-10-18T15:22:48.970Z,10.70
2022-10-18T15:25:21.034Z,11.10
2022-10-18T15:27:58.186Z,10.80
2022-10-18T15:30:38.502Z,11.40
2022-10-18T15:33:10.790Z,11.20
2022-10-18T15:35:39.836Z,13.30
2022-10-18T15:38:26.954Z,13.50
2022-10-18T15:40:55.105Z,11.70
2022-10-18T15:43:27.898Z,11.70
2022-10-18T15:46:05.055Z,12.90
2022-10-18T15:48:39.134Z,11.30
2022-10-18T15:51:46.903Z,10.70
2022-10-18T15:54:29.824Z,10.40
2022-10-18T15:56:57.394Z,11.60
2022-10-18T15:59:28.504Z,10.00
2022-10-18T16:01:55.560Z,11.10
2022-10-18T16:04:27.949Z,10.80
2022-10-18T16:06:58.554Z,9.60
2022-10-18T16:09:28.908Z,10.80
2022-10-18T16:11:57.487Z,10.80
2022-10-18T16:14:27.544Z,10.30
2022-10-18T16:17:00.950Z,16.60
2022-10-18T16:19:29.520Z,25.50
2022-10-18T16:21:56.862Z,23.30
2022-10-18T16:24:24.402Z,17.90
2022-10-18T16:26:53.898Z,14.10
2022-10-18T16:29:28.698Z,13.00
2022-10-18T16:31:58.344Z,12.50
2022-10-18T16:34:27.593Z,12.50
2022-10-18T16:36:55.501Z,12.40
2022-10-18T16:39:24.704Z,12.00
2022-10-18T16:41:52.413Z,10.90
2022-10-18T16:46:51.067Z,11.80
2022-10-18T16:49:26.369Z,13.00
2022-10-18T16:51:55.001Z,17.00
2022-10-18T16:54:23.161Z,21.40
2022-10-18T16:56:50.550Z,19.60
2022-10-18T16:59:30.515Z,14.80
2022-10-18T17:01:58.179Z,13.40
2022-10-18T17:04:25.073Z,13.30
2022-10-18T17:06:54.557Z,14.30
2022-10-18T17:09:21.438Z,11.50
2022-10-18T17:11:48.246Z,11.70
2022-10-18T17:14:15.068Z,11.30
2022-10-18T17:16:44.515Z,12.10
2022-10-18T17:19:15.032Z,12.70
2022-10-18T17:21:41.977Z,12.00
2022-10-18T17:24:08.928Z,12.00
2022-10-18T17:26:35.705Z,11.30
2022-10-18T17:29:06.335Z,9.40
2022-10-18T17:31:33.800Z,8.80
2022-10-18T17:34:02.129Z,7.90
2022-10-18T17:36:31.542Z,8.20
2022-10-18T17:38:59.103Z,8.60
2022-10-18T17:41:26.477Z,9.70
2022-10-18T17:43:53.718Z,7.70
2022-10-18T17:46:20.958Z,9.50
2022-10-18T17:48:47.777Z,9.40
2022-10-18T17:51:17.241Z,11.30
2022-10-18T17:53:44.648Z,24.20
2022-10-18T17:56:13.031Z,20.00
2022-10-18T17:58:40.379Z,14.40
2022-10-18T18:01:17.809Z,11.70
2022-10-18T18:03:47.604Z,13.90
2022-10-18T18:06:22.826Z,13.80
2022-10-18T18:08:50.487Z,14.80
2022-10-18T18:11:18.464Z,11.70
2022-10-18T18:13:46.012Z,8.70
2022-10-18T18:16:21.802Z,8.40
2022-10-18T18:18:53.921Z,7.10
2022-10-18T18:21:22.117Z,8.00
2022-10-18T18:23:49.863Z,7.00
2022-10-18T18:28:45.030Z,7.30
2022-10-18T18:31:19.765Z,7.60
2022-10-18T18:33:46.621Z,13.60
2022-10-18T18:36:13.606Z,26.30
2022-10-18T18:38:44.508Z,19.50
2022-10-18T18:41:18.666Z,15.50
2022-10-18T18:43:58.638Z,17.60
2022-10-18T18:46:28.588Z,13.50
2022-10-18T18:48:58.322Z,12.90
2022-10-18T18:51:25.758Z,9.90
2022-10-18T18:53:52.646Z,7.70
2022-10-18T18:56:24.095Z,7.30
2022-10-18T18:58:53.683Z,7.00
2022-10-18T19:01:25.026Z,6.80
2022-10-18T19:03:55.067Z,7.10
2022-10-18T19:06:25.801Z,7.50
2022-10-18T19:08:58.181Z,8.10
2022-10-18T19:11:24.998Z,7.00
2022-10-18T19:13:51.939Z,7.10
2022-10-18T19:16:33.852Z,5.90
2022-10-18T19:19:14.039Z,6.10
2022-10-18T19:21:56.876Z,7.40
2022-10-18T19:24:27.317Z,22.50
2022-10-18T19:27:02.068Z,14.50
2022-10-18T19:29:38.993Z,7.60
2022-10-18T19:32:11.959Z,6.80
2022-10-18T19:34:39.312Z,6.60
2022-10-18T19:37:06.044Z,6.40
2022-10-18T19:39:35.549Z,6.00
2022-10-18T19:42:06.909Z,8.30
2022-10-18T19:44:36.749Z,11.40
2022-10-18T19:47:06.635Z,11.90
2022-10-18T19:49:33.528Z,9.80
2022-10-18T19:52:00.387Z,9.30
2022-10-18T19:54:27.289Z,7.90
2022-10-18T19:56:54.167Z,8.60
2022-10-18T19:59:22.663Z,10.20
2022-10-18T20:01:49.982Z,9.70
2022-10-18T20:04:17.636Z,10.10
2022-10-18T20:06:45.333Z,9.60
2022-10-18T20:09:17.689Z,9.50
2022-10-18T20:11:47.516Z,9.00
2022-10-18T20:14:14.373Z,10.20
2022-10-18T20:16:41.201Z,10.90
2022-10-18T20:19:08.253Z,10.40
2022-10-18T20:21:36.582Z,10.10
2022-10-18T20:24:06.028Z,8.90
2022-10-18T20:26:35.956Z,9.20
2022-10-18T20:29:04.303Z,8.80
2022-10-18T20:31:37.150Z,9.40
2022-10-18T20:34:08.154Z,9.30
2022-10-18T20:36:35.468Z,10.80
2022-10-18T20:39:03.758Z,10.00
2022-10-18T20:41:41.139Z,9.60
2022-10-18T20:44:19.486Z,8.80
2022-10-18T20:46:47.117Z,9.00
2022-10-18T20:49:16.638Z,9.30
2022-10-18T20:51:43.794Z,10.20
2022-10-18T20:54:12.280Z,9.60
2022-10-18T20:56:39.578Z,9.60
2022-10-18T20:59:09.654Z,9.40
2022-10-18T21:01:38.703Z,9.60
2022-10-18T21:04:08.513Z,8.60
2022-10-18T21:06:42.409Z,8.90
2022-10-18T21:09:18.910Z,8.60
2022-10-18T21:11:49.781Z,9.50
2022-10-18T21:14:20.327Z,8.20
2022-10-18T21:16:48.339Z,8.30
2022-10-18T21:19:21.337Z,8.40
2022-10-18T21:21:51.961Z,8.80
2022-10-18T21:24:20.989Z,8.60
2022-10-18T21:26:48.437Z,10.00
2022-10-18T21:29:20.770Z,9.50
2022-10-18T21:31:49.200Z,9.00
2022-10-18T21:34:17.552Z,9.40
2022-10-18T21:36:46.925Z,8.90
2022-10-18T21:39:20.921Z,7.90
2022-10-18T21:41:47.916Z,7.90
2022-10-18T21:44:16.577Z,7.90
2022-10-18T21:46:44.178Z,8.80
2022-10-18T21:49:11.497Z,7.70
2022-10-18T21:51:38.945Z,9.90
2022-10-18T21:54:11.534Z,8.70
2022-10-18T21:56:38.745Z,8.30
2022-10-18T21:59:05.950Z,8.00
2022-10-18T22:01:38.772Z,7.10
2022-10-18T22:04:17.253Z,7.70
2022-10-18T22:06:44.056Z,7.70
2022-10-18T22:09:12.765Z,7.90
2022-10-18T22:11:45.439Z,8.30
2022-10-18T22:14:12.791Z,8.50
2022-10-18T22:16:39.580Z,8.20
2022-10-18T22:19:07.825Z,8.90
2022-10-18T22:21:35.275Z,8.10
2022-10-18T22:24:07.293Z,8.30
2022-10-18T22:26:38.266Z,7.90
2022-10-18T22:29:20.936Z,7.90
2022-10-18T22:31:52.429Z,8.10
2022-10-18T22:34:29.153Z,8.40
2022-10-18T22:36:56.574Z,9.10
2022-10-18T22:39:24.680Z,8.50
2022-10-18T22:41:55.925Z,9.20
2022-10-18T22:44:23.626Z,8.30
2022-10-18T22:46:50.472Z,9.00
2022-10-18T22:49:17.336Z,9.10
2022-10-18T22:51:44.288Z,9.20
2022-10-18T22:54:11.225Z,9.90
2022-10-18T22:56:38.074Z,9.30
2022-10-18T22:59:04.901Z,9.80
2022-10-18T23:01:31.752Z,9.70
2022-10-18T23:04:00.897Z,10.80
2022-10-18T23:06:35.388Z,9.90
2022-10-18T23:09:10.183Z,10.10
2022-10-18T23:11:38.189Z,10.10
2022-10-18T23:14:07.056Z,10.60
2022-10-18T23:16:34.101Z,10.70
2022-10-18T23:19:01.038Z,10.50
2022-10-18T23:21:29.338Z,12.10
2022-10-18T23:23:57.712Z,10.60
2022-10-18T23:26:27.865Z,10.90
2022-10-18T23:28:55.550Z,9.80
2022-10-18T23:33:56.972Z,9.20
2022-10-18T23:36:25.511Z,9.70
2022-10-18T23:38:53.378Z,10.10
2022-10-18T23:43:47.800Z,10.90
2022-10-18T23:46:16.870Z,11.20
2022-10-18T23:52:50.400Z,10.10
2022-10-18T23:55:17.384Z,10.00
2022-10-18T23:57:44.311Z,11.10
